Time;durP1;ratioP1;P1;durP2;ratioP2;P2;SDS_P1;SDS_P2;PMS_P1;PMS_P2;Temp;Humidity;BMP_temperature;BMP_pressure;BME280_temperature;BME280_humidity;BME280_pressure;Samples;Min_cycle;Max_cycle;Signal;HPM_P1;HPM_P2
2023/12/07 00:00:43;;;;;;;;;;;1.40;99.90;;;;;;5082542;28;19920;-71
2023/12/07 00:03:10;;;;;;;;;;;1.40;99.90;;;;;;5074528;28;20359;-71
2023/12/07 00:05:36;;;;;;;;;;;1.40;99.90;;;;;;5082388;28;19983;-70
2023/12/07 00:08:04;;;;;;;;;;;1.40;99.90;;;;;;5077447;28;20151;-70
2023/12/07 00:10:31;;;;;;;;;;;1.30;99.90;;;;;;5097455;28;19986;-71
2023/12/07 00:12:58;;;;;;;;;;;1.30;99.90;;;;;;5067837;28;19921;-71
2023/12/07 00:15:24;;;;;;;;;;;1.30;99.90;;;;;;5082525;28;19943;-69
2023/12/07 00:17:51;;;;;;;;;;;1.30;99.90;;;;;;5082955;28;19926;-71
2023/12/07 00:20:17;;;;;;;;;;;1.30;99.90;;;;;;5079226;28;19979;-71
2023/12/07 00:22:44;;;;;;;;;;;1.30;99.90;;;;;;5102706;28;19920;-71
2023/12/07 00:25:12;;;;;;;;;;;1.30;99.90;;;;;;5081922;28;20091;-70
2023/12/07 00:27:38;;;;;;;;;;;1.30;99.90;;;;;;5082520;28;19927;-71
2023/12/07 00:30:05;;;;;;;;;;;1.30;99.90;;;;;;5085684;28;19938;-71
2023/12/07 00:32:32;;;;;;;;;;;1.40;99.90;;;;;;5086640;28;19978;-71
2023/12/07 00:34:59;;;;;;;;;;;1.40;99.90;;;;;;5085933;28;19920;-70
2023/12/07 00:37:27;;;;;;;;;;;1.30;99.90;;;;;;5084168;28;19926;-71
2023/12/07 00:39:53;;;;;;;;;;;1.30;99.90;;;;;;5083801;28;19966;-71
2023/12/07 00:42:21;;;;;;;;;;;1.30;99.90;;;;;;5085692;28;19943;-71
2023/12/07 00:44:48;;;;;;;;;;;1.40;99.90;;;;;;5085522;28;19920;-71
2023/12/07 00:47:14;;;;;;;;;;;1.40;99.90;;;;;;5086381;28;19958;-71
2023/12/07 00:49:41;;;;;;;;;;;1.30;99.90;;;;;;5086057;28;19987;-70
2023/12/07 00:52:08;;;;;;;;;;;1.30;99.90;;;;;;5085915;28;19932;-71
2023/12/07 00:54:34;;;;;;;;;;;1.30;99.90;;;;;;5085525;28;19988;-71
2023/12/07 00:57:01;;;;;;;;;;;1.30;99.90;;;;;;5086279;28;19920;-71
2023/12/07 00:59:33;;;;;;;;;;;1.30;99.90;;;;;;5086153;28;19942;-71
2023/12/07 01:02:00;;;;;;;;;;;1.30;99.90;;;;;;5085803;28;19966;-71
2023/12/07 01:04:27;;;;;;;;;;;1.40;99.90;;;;;;5085519;28;19927;-71
2023/12/07 01:06:53;;;;;;;;;;;1.30;99.90;;;;;;5086250;28;19927;-70
2023/12/07 01:09:21;;;;;;;;;;;1.40;99.90;;;;;;5086439;28;19983;-71
2023/12/07 01:11:48;;;;;;;;;;;1.40;99.90;;;;;;5088697;28;19992;-70
2023/12/07 01:14:15;;;;;;;;;;;1.40;99.90;;;;;;5084921;28;20190;-71
2023/12/07 01:16:43;;;;;;;;;;;1.40;99.90;;;;;;5085992;28;19927;-71
2023/12/07 01:19:09;;;;;;;;;;;1.40;99.90;;;;;;5105369;28;19984;-71
2023/12/07 01:21:36;;;;;;;;;;;1.40;99.90;;;;;;5105270;28;19920;-71
2023/12/07 01:24:03;;;;;;;;;;;1.40;99.90;;;;;;5104603;28;19920;-70
2023/12/07 01:26:29;;;;;;;;;;;1.50;99.90;;;;;;5105183;28;19924;-71
2023/12/07 01:28:56;;;;;;;;;;;1.50;99.90;;;;;;5104752;28;19987;-71
2023/12/07 01:31:22;;;;;;;;;;;1.40;99.90;;;;;;5105232;28;19920;-71
2023/12/07 01:33:50;;;;;;;;;;;1.50;99.90;;;;;;5103128;28;19924;-71
2023/12/07 01:36:17;;;;;;;;;;;1.40;99.90;;;;;;5078203;28;19951;-73
2023/12/07 01:38:44;;;;;;;;;;;1.50;99.90;;;;;;5090074;28;19926;-70
2023/12/07 01:41:11;;;;;;;;;;;1.50;99.90;;;;;;5104444;28;19920;-70
2023/12/07 01:43:37;;;;;;;;;;;1.50;99.90;;;;;;5086960;28;19991;-71
2023/12/07 01:46:05;;;;;;;;;;;1.50;99.90;;;;;;5084674;28;19929;-71
2023/12/07 01:48:32;;;;;;;;;;;1.50;99.90;;;;;;5085062;28;19963;-71
2023/12/07 01:51:00;;;;;;;;;;;1.50;99.90;;;;;;5084571;28;19983;-69
2023/12/07 01:53:27;;;;;;;;;;;1.50;99.90;;;;;;5098575;28;19959;-71
2023/12/07 01:55:54;;;;;;;;;;;1.50;99.90;;;;;;5095614;28;20233;-71
2023/12/07 01:58:20;;;;;;;;;;;1.50;99.90;;;;;;5099565;28;19928;-70
2023/12/07 02:00:47;;;;;;;;;;;1.50;99.90;;;;;;5101206;28;20166;-70
2023/12/07 02:03:14;;;;;;;;;;;1.50;99.90;;;;;;5104435;28;20010;-71
2023/12/07 02:05:43;;;;;;;;;;;1.50;99.90;;;;;;5103962;28;19979;-70
2023/12/07 02:08:11;;;;;;;;;;;1.50;99.90;;;;;;5085824;28;19985;-71
2023/12/07 02:10:37;;;;;;;;;;;1.50;99.90;;;;;;5104619;28;19983;-71
2023/12/07 02:13:04;;;;;;;;;;;1.50;99.90;;;;;;5084842;28;19942;-71
2023/12/07 02:15:31;;;;;;;;;;;1.50;99.90;;;;;;5098729;28;19983;-71
2023/12/07 02:18:00;;;;;;;;;;;1.50;99.90;;;;;;5103850;28;19963;-71
2023/12/07 02:20:29;;;;;;;;;;;1.50;99.90;;;;;;5104447;28;19920;-70
2023/12/07 02:22:57;;;;;;;;;;;1.50;99.90;;;;;;5104026;28;20162;-71
2023/12/07 02:25:30;;;;;;;;;;;1.50;99.90;;;;;;5103868;28;20185;-71
2023/12/07 02:27:58;;;;;;;;;;;1.60;99.90;;;;;;5102406;28;19920;-71
2023/12/07 02:30:24;;;;;;;;;;;1.50;99.90;;;;;;5084143;28;19955;-71
2023/12/07 02:32:51;;;;;;;;;;;1.50;99.90;;;;;;5084369;28;19983;-71
2023/12/07 02:35:17;;;;;;;;;;;1.50;99.90;;;;;;5083293;28;20228;-70
2023/12/07 02:37:46;;;;;;;;;;;1.60;99.90;;;;;;5082068;28;19995;-70
2023/12/07 02:40:15;;;;;;;;;;;1.50;99.90;;;;;;5080363;28;19920;-71
2023/12/07 02:42:42;;;;;;;;;;;1.60;99.90;;;;;;5102939;28;19942;-71
2023/12/07 02:45:11;;;;;;;;;;;1.60;99.90;;;;;;5082440;28;19921;-71
2023/12/07 02:47:38;;;;;;;;;;;1.60;99.90;;;;;;5084075;28;19931;-70
2023/12/07 02:50:06;;;;;;;;;;;1.60;99.90;;;;;;5083264;28;19929;-71
2023/12/07 02:52:32;;;;;;;;;;;1.50;99.90;;;;;;5082840;28;20074;-71
2023/12/07 02:54:59;;;;;;;;;;;1.50;99.90;;;;;;5084917;28;19920;-71
2023/12/07 02:57:25;;;;;;;;;;;1.50;99.90;;;;;;5103669;28;19983;-70
2023/12/07 02:59:52;;;;;;;;;;;1.50;99.90;;;;;;5103555;28;19920;-71
2023/12/07 03:02:20;;;;;;;;;;;1.60;99.90;;;;;;5103565;28;19956;-71
2023/12/07 03:04:47;;;;;;;;;;;1.60;99.90;;;;;;5086094;28;19988;-72
2023/12/07 03:07:13;;;;;;;;;;;1.50;99.90;;;;;;5103344;28;19920;-71
2023/12/07 03:09:40;;;;;;;;;;;1.60;99.90;;;;;;5101663;28;20179;-71
2023/12/07 03:12:07;;;;;;;;;;;1.50;99.90;;;;;;5103206;28;19928;-70
2023/12/07 03:14:33;;;;;;;;;;;1.60;99.90;;;;;;5102653;28;19963;-71
2023/12/07 03:17:00;;;;;;;;;;;1.50;99.90;;;;;;5103080;28;20285;-70
2023/12/07 03:19:28;;;;;;;;;;;1.50;99.90;;;;;;5086534;28;20254;-70
2023/12/07 03:21:55;;;;;;;;;;;1.50;99.90;;;;;;5083762;28;19995;-71
2023/12/07 03:24:21;;;;;;;;;;;1.50;99.90;;;;;;5083116;28;20158;-71
2023/12/07 03:26:48;;;;;;;;;;;1.50;99.90;;;;;;5092206;28;19920;-71
2023/12/07 03:29:13;;;;;;;;;;;1.50;99.90;;;;;;5090559;28;20264;-71
2023/12/07 03:31:40;;;;;;;;;;;1.60;99.90;;;;;;5083139;28;19928;-71
2023/12/07 03:34:07;;;;;;;;;;;1.60;99.90;;;;;;5082781;28;19920;-71
2023/12/07 03:36:35;;;;;;;;;;;1.60;99.90;;;;;;5083615;28;19984;-71
2023/12/07 03:39:03;;;;;;;;;;;1.50;99.90;;;;;;5083090;28;20291;-70
2023/12/07 03:41:29;;;;;;;;;;;1.50;99.90;;;;;;5082417;28;19921;-71
2023/12/07 03:43:56;;;;;;;;;;;1.50;99.90;;;;;;5090639;28;19983;-71
2023/12/07 03:46:22;;;;;;;;;;;1.50;99.90;;;;;;5082905;28;19927;-71
2023/12/07 03:48:49;;;;;;;;;;;1.50;99.90;;;;;;5083561;28;19921;-70
2023/12/07 03:51:16;;;;;;;;;;;1.50;99.90;;;;;;5095634;28;19927;-71
2023/12/07 03:53:44;;;;;;;;;;;1.50;99.90;;;;;;5079009;28;20206;-70
2023/12/07 03:56:11;;;;;;;;;;;1.60;99.90;;;;;;5091654;28;19979;-71
2023/12/07 03:58:37;;;;;;;;;;;1.50;99.90;;;;;;5083588;28;19962;-70
2023/12/07 04:01:04;;;;;;;;;;;1.50;99.90;;;;;;5083157;28;19935;-70
2023/12/07 04:03:31;;;;;;;;;;;1.60;99.90;;;;;;5086374;28;19983;-72
2023/12/07 04:05:57;;;;;;;;;;;1.60;99.90;;;;;;5105715;28;19920;-71
2023/12/07 04:08:24;;;;;;;;;;;1.60;99.90;;;;;;5098095;28;19927;-70
2023/12/07 04:10:52;;;;;;;;;;;1.50;99.90;;;;;;5084784;28;19920;-70
2023/12/07 04:13:18;;;;;;;;;;;1.50;99.90;;;;;;5087033;28;19987;-70
2023/12/07 04:15:45;;;;;;;;;;;1.50;99.90;;;;;;5086716;28;20247;-71
2023/12/07 04:18:12;;;;;;;;;;;1.50;99.90;;;;;;5087063;28;19987;-70
2023/12/07 04:20:38;;;;;;;;;;;1.50;99.90;;;;;;5087051;28;20253;-70
2023/12/07 04:23:05;;;;;;;;;;;1.50;99.90;;;;;;5087313;28;19991;-70
2023/12/07 04:25:31;;;;;;;;;;;1.50;99.90;;;;;;5086531;28;19999;-70
2023/12/07 04:27:59;;;;;;;;;;;1.50;99.90;;;;;;5097031;28;19979;-70
2023/12/07 04:30:26;;;;;;;;;;;1.50;99.90;;;;;;5106938;28;19920;-71
2023/12/07 04:32:53;;;;;;;;;;;1.50;99.90;;;;;;5087182;28;19975;-70
2023/12/07 04:35:19;;;;;;;;;;;1.40;99.90;;;;;;5086422;28;19988;-71
2023/12/07 04:37:46;;;;;;;;;;;1.40;99.90;;;;;;5086873;28;19935;-71
2023/12/07 04:40:12;;;;;;;;;;;1.40;99.90;;;;;;5092339;28;19951;-70
2023/12/07 04:42:39;;;;;;;;;;;1.40;99.90;;;;;;5105731;28;20035;-70
2023/12/07 04:45:08;;;;;;;;;;;1.40;99.90;;;;;;5085590;28;19928;-70
2023/12/07 04:47:34;;;;;;;;;;;1.40;99.90;;;;;;5086459;28;19987;-70
2023/12/07 04:50:01;;;;;;;;;;;1.40;99.90;;;;;;5075887;28;19956;-72
2023/12/07 04:52:28;;;;;;;;;;;1.30;99.90;;;;;;5070352;28;20226;-70
2023/12/07 04:54:54;;;;;;;;;;;1.40;99.90;;;;;;5085952;28;19930;-70
2023/12/07 04:57:21;;;;;;;;;;;1.30;99.90;;;;;;5091479;28;19920;-70
2023/12/07 04:59:47;;;;;;;;;;;1.30;99.90;;;;;;5106346;28;19988;-70
2023/12/07 05:02:16;;;;;;;;;;;1.30;99.90;;;;;;5106315;28;19934;-70
2023/12/07 05:04:43;;;;;;;;;;;1.30;99.90;;;;;;5103658;28;20217;-70
2023/12/07 05:07:09;;;;;;;;;;;1.30;99.90;;;;;;5086329;28;20184;-70
2023/12/07 05:09:36;;;;;;;;;;;1.30;99.90;;;;;;5093142;28;19920;-70
2023/12/07 05:12:03;;;;;;;;;;;1.30;99.90;;;;;;5105588;28;20228;-71
2023/12/07 05:14:29;;;;;;;;;;;1.20;99.90;;;;;;5105236;28;19966;-71
2023/12/07 05:16:56;;;;;;;;;;;1.20;99.90;;;;;;5104965;28;20113;-70
2023/12/07 05:19:24;;;;;;;;;;;1.10;99.90;;;;;;5105974;28;19920;-70
2023/12/07 05:21:51;;;;;;;;;;;1.10;99.90;;;;;;5105763;28;20181;-70
2023/12/07 05:24:17;;;;;;;;;;;1.10;99.90;;;;;;5096097;28;19927;-70
2023/12/07 05:26:45;;;;;;;;;;;1.00;99.90;;;;;;5082224;28;19920;-70
2023/12/07 05:29:12;;;;;;;;;;;1.00;99.90;;;;;;5101992;28;19983;-70
2023/12/07 05:31:39;;;;;;;;;;;1.00;99.90;;;;;;5101453;28;19920;-71
2023/12/07 05:34:06;;;;;;;;;;;1.00;99.90;;;;;;5104642;28;19963;-70
2023/12/07 05:36:34;;;;;;;;;;;1.00;99.90;;;;;;5105571;28;20259;-71
2023/12/07 05:39:01;;;;;;;;;;;1.00;99.90;;;;;;5098147;28;19927;-70
2023/12/07 05:41:27;;;;;;;;;;;0.90;99.90;;;;;;5084786;28;19928;-70
2023/12/07 05:43:54;;;;;;;;;;;1.00;99.90;;;;;;5085115;28;19988;-70
2023/12/07 05:46:20;;;;;;;;;;;0.90;99.90;;;;;;5079243;28;19984;-71
2023/12/07 05:48:47;;;;;;;;;;;0.90;99.90;;;;;;5085723;28;19927;-70
2023/12/07 05:51:14;;;;;;;;;;;0.90;99.90;;;;;;5085347;28;19950;-71
2023/12/07 05:53:42;;;;;;;;;;;0.90;99.90;;;;;;5084857;28;19920;-70
2023/12/07 05:56:08;;;;;;;;;;;0.90;99.90;;;;;;5096878;28;19926;-70
2023/12/07 05:58:35;;;;;;;;;;;0.90;99.90;;;;;;5105393;28;19956;-70
2023/12/07 06:01:02;;;;;;;;;;;0.90;99.90;;;;;;5105116;28;19926;-69
2023/12/07 06:03:29;;;;;;;;;;;0.80;99.90;;;;;;5105115;28;19961;-70
2023/12/07 06:05:56;;;;;;;;;;;0.90;99.90;;;;;;5105003;28;19920;-70
2023/12/07 06:08:22;;;;;;;;;;;0.80;99.90;;;;;;5102405;28;19927;-70
2023/12/07 06:10:50;;;;;;;;;;;0.80;99.90;;;;;;5083068;28;19983;-70
2023/12/07 06:13:17;;;;;;;;;;;0.80;99.90;;;;;;5104603;28;19983;-70
2023/12/07 06:15:44;;;;;;;;;;;0.80;99.90;;;;;;5104377;28;19983;-70
2023/12/07 06:18:10;;;;;;;;;;;0.90;99.90;;;;;;5104914;28;20281;-70
2023/12/07 06:20:37;;;;;;;;;;;0.90;99.90;;;;;;5105299;28;19979;-70
2023/12/07 06:23:04;;;;;;;;;;;1.00;99.90;;;;;;5101690;28;20113;-72
2023/12/07 06:25:31;;;;;;;;;;;1.00;99.90;;;;;;5098947;28;20095;-70
2023/12/07 06:27:58;;;;;;;;;;;1.00;99.90;;;;;;5104382;28;19926;-70
2023/12/07 06:30:25;;;;;;;;;;;1.00;99.90;;;;;;5099045;28;19983;-73
2023/12/07 06:32:52;;;;;;;;;;;1.00;99.90;;;;;;5084264;28;19920;-67
2023/12/07 06:35:19;;;;;;;;;;;1.00;99.90;;;;;;5083996;28;19984;-71
2023/12/07 06:37:45;;;;;;;;;;;1.10;99.90;;;;;;5092999;28;19975;-71
2023/12/07 06:40:12;;;;;;;;;;;1.10;99.90;;;;;;5086181;28;19921;-70
2023/12/07 06:42:39;;;;;;;;;;;1.20;99.90;;;;;;5084541;28;19987;-71
2023/12/07 06:45:10;;;;;;;;;;;1.20;99.90;;;;;;5083970;28;19939;-70
2023/12/07 06:47:37;;;;;;;;;;;1.20;99.90;;;;;;5084634;28;19921;-70
2023/12/07 06:50:04;;;;;;;;;;;1.10;99.90;;;;;;5095078;28;19927;-70
2023/12/07 06:52:31;;;;;;;;;;;1.10;99.90;;;;;;5104052;28;19962;-70
2023/12/07 06:54:58;;;;;;;;;;;1.10;99.90;;;;;;5103653;28;19988;-70
2023/12/07 06:57:25;;;;;;;;;;;1.10;99.90;;;;;;5090853;28;19928;-70
2023/12/07 06:59:51;;;;;;;;;;;1.10;99.90;;;;;;5084149;28;20273;-70
2023/12/07 07:02:19;;;;;;;;;;;1.10;99.90;;;;;;5084024;28;19988;-71
2023/12/07 07:04:48;;;;;;;;;;;1.10;99.90;;;;;;5081957;28;19926;-71
2023/12/07 07:07:15;;;;;;;;;;;1.10;99.90;;;;;;5084253;28;20284;-70
2023/12/07 07:09:42;;;;;;;;;;;1.20;99.90;;;;;;5089063;28;19987;-70
2023/12/07 07:12:08;;;;;;;;;;;1.10;99.90;;;;;;5103564;28;19951;-70
2023/12/07 07:14:35;;;;;;;;;;;1.20;99.90;;;;;;5088020;28;19979;-70
2023/12/07 07:17:01;;;;;;;;;;;1.20;99.90;;;;;;5083941;28;19920;-70
2023/12/07 07:19:30;;;;;;;;;;;1.10;99.90;;;;;;5084074;28;19956;-70
2023/12/07 07:21:56;;;;;;;;;;;1.20;99.90;;;;;;5084038;28;19920;-69
2023/12/07 07:24:23;;;;;;;;;;;1.20;99.90;;;;;;5096565;28;19957;-70
2023/12/07 07:26:49;;;;;;;;;;;1.20;99.90;;;;;;5103191;28;19926;-69
2023/12/07 07:29:16;;;;;;;;;;;1.20;99.90;;;;;;5103135;28;19920;-69
2023/12/07 07:31:43;;;;;;;;;;;1.30;99.90;;;;;;5103322;28;19926;-70
2023/12/07 07:34:09;;;;;;;;;;;1.30;99.90;;;;;;5094273;28;19927;-70
2023/12/07 07:36:37;;;;;;;;;;;1.30;99.90;;;;;;5103750;28;20113;-70
2023/12/07 07:39:04;;;;;;;;;;;1.30;99.90;;;;;;5098155;28;19952;-70
2023/12/07 07:41:31;;;;;;;;;;;1.30;99.90;;;;;;5083578;28;19989;-70
2023/12/07 07:43:58;;;;;;;;;;;1.40;99.90;;;;;;5092387;28;19979;-70
2023/12/07 07:46:25;;;;;;;;;;;1.40;99.90;;;;;;5103259;28;19920;-70
2023/12/07 07:48:52;;;;;;;;;;;1.40;99.90;;;;;;5102559;28;19920;-69
2023/12/07 07:51:19;;;;;;;;;;;1.30;99.90;;;;;;5103263;28;19983;-69
2023/12/07 07:53:46;;;;;;;;;;;1.40;99.90;;;;;;5102154;28;19920;-70
2023/12/07 07:56:13;;;;;;;;;;;1.40;99.90;;;;;;5082782;28;19956;-69
2023/12/07 07:58:40;;;;;;;;;;;1.40;99.90;;;;;;5082423;28;19942;-69
2023/12/07 08:01:07;;;;;;;;;;;1.40;99.90;;;;;;5083523;28;19975;-69
2023/12/07 08:03:33;;;;;;;;;;;1.40;99.90;;;;;;5082379;28;19956;-69
2023/12/07 08:06:00;;;;;;;;;;;1.40;99.90;;;;;;5083612;28;19983;-68
2023/12/07 08:08:27;;;;;;;;;;;1.40;99.90;;;;;;5083271;28;19983;-68
2023/12/07 08:10:55;;;;;;;;;;;1.40;99.90;;;;;;5099723;28;20017;-68
2023/12/07 08:13:21;;;;;;;;;;;1.50;99.90;;;;;;5081519;28;19924;-69
2023/12/07 08:15:48;;;;;;;;;;;1.50;99.90;;;;;;5082940;28;19983;-68
2023/12/07 08:18:15;;;;;;;;;;;1.50;99.90;;;;;;5083485;28;19983;-69
2023/12/07 08:20:41;;;;;;;;;;;1.60;99.90;;;;;;5083561;28;20214;-69
2023/12/07 08:23:08;;;;;;;;;;;1.60;99.90;;;;;;5083555;28;19980;-70
2023/12/07 08:25:34;;;;;;;;;;;1.60;99.90;;;;;;5082950;28;19921;-69
2023/12/07 08:28:02;;;;;;;;;;;1.60;99.90;;;;;;5083506;28;20000;-69
2023/12/07 08:30:30;;;;;;;;;;;1.60;99.90;;;;;;5089235;28;19942;-68
2023/12/07 08:32:56;;;;;;;;;;;1.60;99.90;;;;;;5102321;28;19920;-70
2023/12/07 08:35:23;;;;;;;;;;;1.60;99.90;;;;;;5102477;28;19983;-70
2023/12/07 08:37:49;;;;;;;;;;;1.60;99.90;;;;;;5101995;28;19920;-70
2023/12/07 08:40:16;;;;;;;;;;;1.60;99.90;;;;;;5082181;28;19987;-70
2023/12/07 08:42:46;;;;;;;;;;;1.60;99.90;;;;;;5082923;28;19987;-71
2023/12/07 08:45:14;;;;;;;;;;;1.60;99.90;;;;;;5082277;28;19956;-71
2023/12/07 08:47:41;;;;;;;;;;;1.60;99.90;;;;;;5098402;28;19919;-71
2023/12/07 08:50:09;;;;;;;;;;;1.70;99.90;;;;;;5102542;28;19987;-71
2023/12/07 08:52:36;;;;;;;;;;;1.70;99.90;;;;;;5098123;28;19927;-70
2023/12/07 08:55:02;;;;;;;;;;;1.80;99.90;;;;;;5085203;28;20203;-70
2023/12/07 08:57:29;;;;;;;;;;;1.80;99.90;;;;;;5085877;28;19979;-70
2023/12/07 08:59:56;;;;;;;;;;;1.80;99.90;;;;;;5086141;28;19921;-69
2023/12/07 09:02:24;;;;;;;;;;;1.80;99.90;;;;;;5085908;28;19991;-70
2023/12/07 09:04:51;;;;;;;;;;;1.80;99.90;;;;;;5085460;28;19920;-71
2023/12/07 09:07:18;;;;;;;;;;;1.80;99.90;;;;;;5098715;28;19926;-70
2023/12/07 09:09:47;;;;;;;;;;;1.80;99.90;;;;;;5098810;28;20007;-70
2023/12/07 09:12:13;;;;;;;;;;;1.80;99.90;;;;;;5078527;28;19973;-69
2023/12/07 09:14:40;;;;;;;;;;;1.80;99.90;;;;;;5085166;28;19991;-69
2023/12/07 09:17:07;;;;;;;;;;;1.80;99.90;;;;;;5086209;28;19988;-70
2023/12/07 09:19:35;;;;;;;;;;;1.70;99.90;;;;;;5085788;28;19992;-70
2023/12/07 09:22:01;;;;;;;;;;;1.80;99.90;;;;;;5086140;28;19942;-70
2023/12/07 09:24:28;;;;;;;;;;;1.80;99.90;;;;;;5085535;28;19928;-70
2023/12/07 09:26:54;;;;;;;;;;;1.90;99.90;;;;;;5095293;28;19983;-69
2023/12/07 09:29:21;;;;;;;;;;;2.00;99.90;;;;;;5100563;28;19921;-69
2023/12/07 09:31:48;;;;;;;;;;;2.00;99.90;;;;;;5085884;28;19952;-69
2023/12/07 09:34:17;;;;;;;;;;;2.00;99.90;;;;;;5104841;28;19920;-69
2023/12/07 09:36:46;;;;;;;;;;;2.00;99.90;;;;;;5105383;28;19958;-74
2023/12/07 09:39:13;;;;;;;;;;;2.00;99.90;;;;;;5072935;28;19987;-70
2023/12/07 09:41:40;;;;;;;;;;;2.00;99.90;;;;;;5084554;28;19932;-70
2023/12/07 09:44:07;;;;;;;;;;;2.00;99.90;;;;;;5087336;28;19928;-70
2023/12/07 09:46:34;;;;;;;;;;;2.00;99.90;;;;;;5105252;28;19927;-70
2023/12/07 09:49:01;;;;;;;;;;;2.00;99.90;;;;;;5095019;28;20150;-68
2023/12/07 09:51:28;;;;;;;;;;;1.90;99.90;;;;;;5085465;28;20000;-69
2023/12/07 09:53:56;;;;;;;;;;;1.90;99.90;;;;;;5084611;28;19921;-69
2023/12/07 09:56:23;;;;;;;;;;;1.90;99.90;;;;;;5098776;28;19920;-70
2023/12/07 09:58:49;;;;;;;;;;;1.80;99.90;;;;;;5104856;28;19999;-70
2023/12/07 10:01:16;;;;;;;;;;;1.90;99.90;;;;;;5104418;28;19991;-69
2023/12/07 10:03:44;;;;;;;;;;;1.90;99.90;;;;;;5104412;28;19920;-70
2023/12/07 10:06:10;;;;;;;;;;;2.00;99.90;;;;;;5076882;28;19927;-70
2023/12/07 10:08:37;;;;;;;;;;;2.00;99.90;;;;;;5092085;28;20010;-69
2023/12/07 10:11:06;;;;;;;;;;;2.00;99.90;;;;;;5080408;28;19927;-68
2023/12/07 10:13:34;;;;;;;;;;;2.00;99.90;;;;;;5086864;28;20003;-69
2023/12/07 10:16:10;;;;;;;;;;;2.00;99.90;;;;;;5084551;28;19983;-70
2023/12/07 10:18:37;;;;;;;;;;;2.00;99.90;;;;;;5084747;28;19970;-70
2023/12/07 10:21:04;;;;;;;;;;;2.00;99.90;;;;;;5084696;28;19963;-70
2023/12/07 10:23:31;;;;;;;;;;;2.00;99.90;;;;;;5084548;28;19988;-73
2023/12/07 10:25:59;;;;;;;;;;;1.90;99.90;;;;;;5082529;28;19951;-69
2023/12/07 10:28:27;;;;;;;;;;;1.90;99.90;;;;;;5097748;28;19983;-69
2023/12/07 10:30:53;;;;;;;;;;;2.00;99.90;;;;;;5104224;28;19962;-68
2023/12/07 10:33:20;;;;;;;;;;;2.10;99.90;;;;;;5104209;28;20099;-67
2023/12/07 10:35:47;;;;;;;;;;;2.20;99.90;;;;;;5093267;28;19920;-73
2023/12/07 10:38:14;;;;;;;;;;;2.30;99.90;;;;;;5077931;28;19920;-69
2023/12/07 10:40:41;;;;;;;;;;;2.50;99.90;;;;;;5084399;28;19948;-72
2023/12/07 10:43:08;;;;;;;;;;;2.50;99.90;;;;;;5083163;28;19935;-70
2023/12/07 10:45:36;;;;;;;;;;;2.50;99.90;;;;;;5081624;28;19927;-72
2023/12/07 10:48:06;;;;;;;;;;;2.40;99.90;;;;;;5084096;28;19928;-72
2023/12/07 10:50:35;;;;;;;;;;;2.30;99.90;;;;;;5090448;28;19924;-72
2023/12/07 10:53:05;;;;;;;;;;;2.40;99.90;;;;;;5103598;28;19920;-72
2023/12/07 10:55:34;;;;;;;;;;;2.50;99.90;;;;;;5103542;28;19924;-71
2023/12/07 10:58:01;;;;;;;;;;;2.60;99.90;;;;;;5103662;28;20265;-69
2023/12/07 11:00:28;;;;;;;;;;;2.60;99.90;;;;;;5081632;28;19988;-72
2023/12/07 11:02:57;;;;;;;;;;;2.70;99.90;;;;;;5092082;28;19987;-71
2023/12/07 11:05:23;;;;;;;;;;;2.80;99.90;;;;;;5077947;28;19952;-72
2023/12/07 11:07:53;;;;;;;;;;;3.00;99.90;;;;;;5080754;28;20128;-72
2023/12/07 11:10:22;;;;;;;;;;;3.10;99.90;;;;;;5076576;28;19991;-72
2023/12/07 11:12:54;;;;;;;;;;;3.20;99.90;;;;;;5084085;28;19927;-72
2023/12/07 11:15:20;;;;;;;;;;;3.30;99.90;;;;;;5089619;28;19924;-72
2023/12/07 11:17:53;;;;;;;;;;;3.20;99.90;;;;;;5083362;28;19928;-71
2023/12/07 11:20:22;;;;;;;;;;;3.30;99.90;;;;;;5103382;28;20229;-72
2023/12/07 11:22:50;;;;;;;;;;;3.40;99.90;;;;;;5102489;28;20228;-71
2023/12/07 11:25:17;;;;;;;;;;;3.40;99.90;;;;;;5082805;28;19955;-72
2023/12/07 11:27:49;;;;;;;;;;;3.50;99.90;;;;;;5083414;28;19928;-71
2023/12/07 11:30:16;;;;;;;;;;;3.50;99.90;;;;;;5083193;28;20206;-72
2023/12/07 11:32:44;;;;;;;;;;;3.40;99.90;;;;;;5083381;28;19966;-70
2023/12/07 11:35:13;;;;;;;;;;;3.30;99.90;;;;;;5074987;28;19951;-72
2023/12/07 11:37:58;;;;;;;;;;;3.30;99.90;;;;;;5083136;28;19962;-72
2023/12/07 11:40:26;;;;;;;;;;;3.20;99.90;;;;;;5082540;28;20192;-72
2023/12/07 11:42:53;;;;;;;;;;;3.30;99.90;;;;;;5094132;28;19920;-72
2023/12/07 11:45:36;;;;;;;;;;;3.30;99.90;;;;;;5083047;28;19983;-71
2023/12/07 11:48:09;;;;;;;;;;;3.30;99.90;;;;;;5083664;28;19988;-71
2023/12/07 11:50:36;;;;;;;;;;;3.30;99.90;;;;;;5083348;28;20244;-72
2023/12/07 11:53:03;;;;;;;;;;;3.20;99.90;;;;;;5091466;28;19926;-72
2023/12/07 11:55:32;;;;;;;;;;;3.20;99.90;;;;;;5097181;28;19920;-72
2023/12/07 11:57:59;;;;;;;;;;;3.20;99.90;;;;;;5102967;28;19987;-72
2023/12/07 12:00:26;;;;;;;;;;;3.30;99.90;;;;;;5103179;28;19978;-72
2023/12/07 12:02:53;;;;;;;;;;;3.20;99.90;;;;;;5102821;28;19920;-72
2023/12/07 12:05:19;;;;;;;;;;;3.30;99.90;;;;;;5102582;28;19991;-72
2023/12/07 12:07:46;;;;;;;;;;;3.30;99.90;;;;;;5102837;28;19999;-71
2023/12/07 12:10:13;;;;;;;;;;;3.20;99.90;;;;;;5094646;28;20206;-72
2023/12/07 12:12:41;;;;;;;;;;;3.20;99.90;;;;;;5083479;28;19920;-72
2023/12/07 12:15:08;;;;;;;;;;;3.20;99.90;;;;;;5082301;28;20468;-71
2023/12/07 12:17:36;;;;;;;;;;;3.20;99.90;;;;;;5083124;28;19966;-72
2023/12/07 12:20:03;;;;;;;;;;;3.20;99.90;;;;;;5082886;28;20003;-69
2023/12/07 12:22:30;;;;;;;;;;;3.20;99.90;;;;;;5077510;28;19927;-70
2023/12/07 12:24:57;;;;;;;;;;;3.20;99.90;;;;;;5101088;28;19920;-70
2023/12/07 12:27:24;;;;;;;;;;;3.10;99.90;;;;;;5106888;28;19928;-70
2023/12/07 12:29:52;;;;;;;;;;;3.10;99.90;;;;;;5097195;28;19927;-70
2023/12/07 12:32:18;;;;;;;;;;;3.00;99.90;;;;;;5085476;28;19927;-70
2023/12/07 12:34:45;;;;;;;;;;;3.00;99.90;;;;;;5077053;28;19987;-70
2023/12/07 12:37:12;;;;;;;;;;;3.00;99.90;;;;;;5077547;28;19958;-70
2023/12/07 12:39:39;;;;;;;;;;;3.00;99.90;;;;;;5083909;28;20214;-71
2023/12/07 12:42:06;;;;;;;;;;;3.00;99.90;;;;;;5103119;28;19991;-71
2023/12/07 12:44:33;;;;;;;;;;;2.90;99.90;;;;;;5105437;28;20177;-70
2023/12/07 12:47:01;;;;;;;;;;;2.80;99.90;;;;;;5088924;28;20125;-71
2023/12/07 12:49:35;;;;;;;;;;;2.70;99.90;;;;;;5085090;28;19927;-71
2023/12/07 12:52:02;;;;;;;;;;;2.70;99.90;;;;;;5082287;28;20289;-71
2023/12/07 12:54:31;;;;;;;;;;;2.70;99.90;;;;;;5093181;28;19928;-71
2023/12/07 12:56:58;;;;;;;;;;;2.60;99.90;;;;;;5082671;28;19921;-72
2023/12/07 12:59:25;;;;;;;;;;;2.70;99.90;;;;;;5092622;28;19988;-71
2023/12/07 13:01:51;;;;;;;;;;;2.70;99.90;;;;;;5087080;28;20240;-71
2023/12/07 13:04:19;;;;;;;;;;;2.60;99.90;;;;;;5083302;28;19920;-71
2023/12/07 13:06:46;;;;;;;;;;;2.70;99.90;;;;;;5084922;28;19924;-71
2023/12/07 13:09:13;;;;;;;;;;;2.80;99.90;;;;;;5097774;28;19984;-71
2023/12/07 13:11:39;;;;;;;;;;;2.80;99.90;;;;;;5093211;28;20397;-71
2023/12/07 13:14:07;;;;;;;;;;;2.90;99.90;;;;;;5079810;28;19966;-70
2023/12/07 13:16:33;;;;;;;;;;;2.90;99.90;;;;;;5089163;28;19970;-71
2023/12/07 13:19:00;;;;;;;;;;;2.90;99.90;;;;;;5085584;28;19928;-71
2023/12/07 13:21:28;;;;;;;;;;;2.80;99.90;;;;;;5082934;28;20286;-71
2023/12/07 13:23:55;;;;;;;;;;;2.70;99.90;;;;;;5094939;28;19927;-71
2023/12/07 13:26:23;;;;;;;;;;;2.40;99.90;;;;;;5086305;28;19987;-72
2023/12/07 13:28:49;;;;;;;;;;;2.30;99.90;;;;;;5093702;28;19952;-72
2023/12/07 13:31:16;;;;;;;;;;;2.30;99.90;;;;;;5087404;28;19984;-71
2023/12/07 13:33:43;;;;;;;;;;;2.20;99.90;;;;;;5094414;28;19950;-71
2023/12/07 13:36:10;;;;;;;;;;;2.20;99.90;;;;;;5086869;28;19920;-72
2023/12/07 13:38:38;;;;;;;;;;;2.10;99.90;;;;;;5089418;28;19927;-72
2023/12/07 13:41:04;;;;;;;;;;;2.10;99.90;;;;;;5077296;28;19980;-71
2023/12/07 13:43:31;;;;;;;;;;;2.00;99.90;;;;;;5085505;28;19948;-71
2023/12/07 13:45:58;;;;;;;;;;;2.00;99.90;;;;;;5078471;28;19920;-71
2023/12/07 13:48:25;;;;;;;;;;;1.90;99.90;;;;;;5076301;28;19921;-71
2023/12/07 13:50:52;;;;;;;;;;;1.90;99.90;;;;;;5090244;28;19927;-71
2023/12/07 13:53:18;;;;;;;;;;;1.90;99.90;;;;;;5080234;28;19920;-71
2023/12/07 13:55:47;;;;;;;;;;;1.90;99.90;;;;;;5084700;28;19921;-72
2023/12/07 13:58:14;;;;;;;;;;;1.90;99.90;;;;;;5064990;28;19985;-70
2023/12/07 14:00:45;;;;;;;;;;;1.90;99.90;;;;;;5080425;28;20281;-71
2023/12/07 14:03:11;;;;;;;;;;;1.90;99.90;;;;;;5079907;28;19979;-72
2023/12/07 14:05:39;;;;;;;;;;;1.90;99.90;;;;;;5094935;28;19921;-71
2023/12/07 14:08:06;;;;;;;;;;;1.90;99.90;;;;;;5095413;28;19938;-71
2023/12/07 14:10:32;;;;;;;;;;;2.00;99.90;;;;;;5096464;28;19920;-69
2023/12/07 14:13:00;;;;;;;;;;;2.00;99.90;;;;;;5079048;28;19921;-70
2023/12/07 14:15:27;;;;;;;;;;;2.00;99.90;;;;;;5084440;28;19960;-71
2023/12/07 14:17:53;;;;;;;;;;;2.00;99.90;;;;;;5084642;28;19987;-70
2023/12/07 14:20:24;;;;;;;;;;;2.10;99.90;;;;;;5080674;28;20087;-70
2023/12/07 14:22:50;;;;;;;;;;;2.00;99.90;;;;;;5085133;28;20087;-71
2023/12/07 14:25:17;;;;;;;;;;;2.00;99.90;;;;;;5093152;28;19920;-70
2023/12/07 14:27:44;;;;;;;;;;;2.00;99.90;;;;;;5080722;28;19962;-70
2023/12/07 14:30:13;;;;;;;;;;;2.00;99.90;;;;;;5079044;28;19958;-70